sensor_id;sensor_type;location;lat;lon;timestamp;P1;durP1;ratioP1;P2;durP2;ratioP2
16029;SDS011;34770;49.272;11.070;2023-03-01T00:01:17;14.93;;;9.53;;
16029;SDS011;34770;49.272;11.070;2023-03-01T00:03:46;12.43;;;9.77;;
16029;SDS011;34770;49.272;11.070;2023-03-01T00:06:12;15.90;;;10.07;;
16029;SDS011;34770;49.272;11.070;2023-03-01T00:08:38;16.63;;;10.50;;
16029;SDS011;34770;49.272;11.070;2023-03-01T00:11:09;12.73;;;9.40;;
16029;SDS011;34770;49.272;11.070;2023-03-01T00:13:46;13.37;;;10.20;;
16029;SDS011;34770;49.272;11.070;2023-03-01T00:16:17;21.20;;;10.03;;
16029;SDS011;34770;49.272;11.070;2023-03-01T00:18:47;12.20;;;9.13;;
16029;SDS011;34770;49.272;11.070;2023-03-01T00:21:13;12.10;;;8.67;;
16029;SDS011;34770;49.272;11.070;2023-03-01T00:23:39;14.03;;;10.10;;
16029;SDS011;34770;49.272;11.070;2023-03-01T00:26:06;14.53;;;10.33;;
16029;SDS011;34770;49.272;11.070;2023-03-01T00:28:32;14.80;;;10.47;;
16029;SDS011;34770;49.272;11.070;2023-03-01T00:33:30;19.07;;;11.90;;
16029;SDS011;34770;49.272;11.070;2023-03-01T00:35:57;16.27;;;10.43;;
16029;SDS011;34770;49.272;11.070;2023-03-01T00:38:23;21.50;;;11.97;;
16029;SDS011;34770;49.272;11.070;2023-03-01T00:40:49;20.60;;;11.80;;
16029;SDS011;34770;49.272;11.070;2023-03-01T00:43:14;18.47;;;12.80;;
16029;SDS011;34770;49.272;11.070;2023-03-01T00:45:40;16.03;;;11.80;;
16029;SDS011;34770;49.272;11.070;2023-03-01T00:48:05;18.37;;;11.83;;
16029;SDS011;34770;49.272;11.070;2023-03-01T00:50:30;18.93;;;11.83;;
16029;SDS011;34770;49.272;11.070;2023-03-01T00:52:56;16.87;;;11.30;;
16029;SDS011;34770;49.272;11.070;2023-03-01T00:55:22;16.67;;;11.67;;
16029;SDS011;34770;49.272;11.070;2023-03-01T00:57:48;17.53;;;12.00;;
16029;SDS011;34770;49.272;11.070;2023-03-01T01:00:13;19.07;;;11.30;;
16029;SDS011;34770;49.272;11.070;2023-03-01T01:02:39;17.57;;;11.93;;
16029;SDS011;34770;49.272;11.070;2023-03-01T01:05:05;18.70;;;11.17;;
16029;SDS011;34770;49.272;11.070;2023-03-01T01:07:31;18.67;;;12.13;;
16029;SDS011;34770;49.272;11.070;2023-03-01T01:09:56;18.73;;;11.00;;
16029;SDS011;34770;49.272;11.070;2023-03-01T01:12:22;17.73;;;12.33;;
16029;SDS011;34770;49.272;11.070;2023-03-01T01:14:47;15.63;;;11.40;;
16029;SDS011;34770;49.272;11.070;2023-03-01T01:17:13;18.23;;;11.80;;
16029;SDS011;34770;49.272;11.070;2023-03-01T01:19:38;17.83;;;11.40;;
16029;SDS011;34770;49.272;11.070;2023-03-01T01:22:04;21.43;;;12.07;;
16029;SDS011;34770;49.272;11.070;2023-03-01T01:24:29;22.17;;;12.93;;
16029;SDS011;34770;49.272;11.070;2023-03-01T01:26:55;21.67;;;13.27;;
16029;SDS011;34770;49.272;11.070;2023-03-01T01:29:21;17.03;;;12.27;;
16029;SDS011;34770;49.272;11.070;2023-03-01T01:31:46;17.63;;;11.90;;
16029;SDS011;34770;49.272;11.070;2023-03-01T01:34:13;21.03;;;12.10;;
16029;SDS011;34770;49.272;11.070;2023-03-01T01:36:40;19.67;;;12.17;;
16029;SDS011;34770;49.272;11.070;2023-03-01T01:39:06;21.70;;;12.87;;
16029;SDS011;34770;49.272;11.070;2023-03-01T01:41:32;16.50;;;11.20;;
16029;SDS011;34770;49.272;11.070;2023-03-01T01:52:09;14.03;;;11.57;;
16029;SDS011;34770;49.272;11.070;2023-03-01T02:00:12;17.53;;;11.80;;
16029;SDS011;34770;49.272;11.070;2023-03-01T02:02:46;20.47;;;12.70;;
16029;SDS011;34770;49.272;11.070;2023-03-01T02:05:20;15.83;;;11.27;;
16029;SDS011;34770;49.272;11.070;2023-03-01T02:07:51;18.17;;;12.20;;
16029;SDS011;34770;49.272;11.070;2023-03-01T02:10:17;20.10;;;11.97;;
16029;SDS011;34770;49.272;11.070;2023-03-01T02:12:42;19.00;;;12.43;;
16029;SDS011;34770;49.272;11.070;2023-03-01T02:15:09;19.30;;;11.47;;
16029;SDS011;34770;49.272;11.070;2023-03-01T02:17:35;15.93;;;11.10;;
16029;SDS011;34770;49.272;11.070;2023-03-01T02:20:04;17.37;;;13.40;;
16029;SDS011;34770;49.272;11.070;2023-03-01T02:22:44;22.83;;;12.83;;
16029;SDS011;34770;49.272;11.070;2023-03-01T02:25:21;15.97;;;10.63;;
16029;SDS011;34770;49.272;11.070;2023-03-01T02:30:48;19.33;;;12.30;;
16029;SDS011;34770;49.272;11.070;2023-03-01T02:33:34;15.93;;;11.27;;
16029;SDS011;34770;49.272;11.070;2023-03-01T02:36:05;17.90;;;11.80;;
16029;SDS011;34770;49.272;11.070;2023-03-01T02:38:34;18.00;;;12.20;;
16029;SDS011;34770;49.272;11.070;2023-03-01T02:41:00;22.90;;;11.53;;
16029;SDS011;34770;49.272;11.070;2023-03-01T02:43:29;18.73;;;11.70;;
16029;SDS011;34770;49.272;11.070;2023-03-01T02:45:58;17.10;;;12.03;;
16029;SDS011;34770;49.272;11.070;2023-03-01T02:48:38;16.37;;;12.23;;
16029;SDS011;34770;49.272;11.070;2023-03-01T02:51:17;20.70;;;12.67;;
16029;SDS011;34770;49.272;11.070;2023-03-01T02:53:55;20.33;;;12.57;;
16029;SDS011;34770;49.272;11.070;2023-03-01T02:56:22;19.17;;;11.80;;
16029;SDS011;34770;49.272;11.070;2023-03-01T02:58:47;19.70;;;11.53;;
16029;SDS011;34770;49.272;11.070;2023-03-01T03:01:17;14.17;;;10.47;;
16029;SDS011;34770;49.272;11.070;2023-03-01T03:03:43;16.90;;;11.00;;
16029;SDS011;34770;49.272;11.070;2023-03-01T03:06:10;20.90;;;11.63;;
16029;SDS011;34770;49.272;11.070;2023-03-01T03:08:36;17.87;;;12.10;;
16029;SDS011;34770;49.272;11.070;2023-03-01T03:11:02;16.87;;;11.17;;
16029;SDS011;34770;49.272;11.070;2023-03-01T03:13:27;16.23;;;10.87;;
16029;SDS011;34770;49.272;11.070;2023-03-01T03:15:56;18.27;;;10.90;;
16029;SDS011;34770;49.272;11.070;2023-03-01T03:18:22;19.83;;;11.73;;
16029;SDS011;34770;49.272;11.070;2023-03-01T03:20:51;17.17;;;12.27;;
16029;SDS011;34770;49.272;11.070;2023-03-01T03:23:19;18.43;;;11.63;;
16029;SDS011;34770;49.272;11.070;2023-03-01T03:25:47;15.10;;;10.50;;
16029;SDS011;34770;49.272;11.070;2023-03-01T03:28:14;17.47;;;10.53;;
16029;SDS011;34770;49.272;11.070;2023-03-01T03:30:41;17.37;;;11.73;;
16029;SDS011;34770;49.272;11.070;2023-03-01T03:33:07;16.47;;;10.73;;
16029;SDS011;34770;49.272;11.070;2023-03-01T03:35:44;16.60;;;12.17;;
16029;SDS011;34770;49.272;11.070;2023-03-01T03:38:12;15.77;;;11.23;;
16029;SDS011;34770;49.272;11.070;2023-03-01T03:40:52;19.37;;;10.33;;
16029;SDS011;34770;49.272;11.070;2023-03-01T03:43:28;16.33;;;10.67;;
16029;SDS011;34770;49.272;11.070;2023-03-01T03:45:55;18.23;;;11.63;;
16029;SDS011;34770;49.272;11.070;2023-03-01T03:48:22;16.70;;;11.00;;
16029;SDS011;34770;49.272;11.070;2023-03-01T03:50:49;16.83;;;11.47;;
16029;SDS011;34770;49.272;11.070;2023-03-01T03:53:17;16.27;;;11.20;;
16029;SDS011;34770;49.272;11.070;2023-03-01T03:55:43;16.33;;;11.80;;
16029;SDS011;34770;49.272;11.070;2023-03-01T03:58:09;21.97;;;12.40;;
16029;SDS011;34770;49.272;11.070;2023-03-01T04:00:45;25.80;;;14.57;;
16029;SDS011;34770;49.272;11.070;2023-03-01T04:03:12;30.60;;;15.13;;
16029;SDS011;34770;49.272;11.070;2023-03-01T04:05:39;25.60;;;15.23;;
16029;SDS011;34770;49.272;11.070;2023-03-01T04:08:05;25.00;;;15.57;;
16029;SDS011;34770;49.272;11.070;2023-03-01T04:10:38;21.77;;;13.60;;
16029;SDS011;34770;49.272;11.070;2023-03-01T04:13:05;29.10;;;14.60;;
16029;SDS011;34770;49.272;11.070;2023-03-01T04:15:32;21.50;;;13.67;;
16029;SDS011;34770;49.272;11.070;2023-03-01T04:17:58;26.70;;;15.50;;
16029;SDS011;34770;49.272;11.070;2023-03-01T04:20:25;23.93;;;14.67;;
16029;SDS011;34770;49.272;11.070;2023-03-01T04:22:57;24.80;;;14.07;;
16029;SDS011;34770;49.272;11.070;2023-03-01T04:25:25;20.87;;;13.67;;
16029;SDS011;34770;49.272;11.070;2023-03-01T04:27:50;21.47;;;12.97;;
16029;SDS011;34770;49.272;11.070;2023-03-01T04:30:16;20.77;;;13.33;;
16029;SDS011;34770;49.272;11.070;2023-03-01T04:32:41;24.40;;;13.50;;
16029;SDS011;34770;49.272;11.070;2023-03-01T04:35:07;18.90;;;12.60;;
16029;SDS011;34770;49.272;11.070;2023-03-01T04:37:33;22.47;;;12.60;;
16029;SDS011;34770;49.272;11.070;2023-03-01T04:39:59;24.83;;;12.57;;
16029;SDS011;34770;49.272;11.070;2023-03-01T04:42:25;17.90;;;10.77;;
16029;SDS011;34770;49.272;11.070;2023-03-01T04:44:51;17.03;;;11.60;;
16029;SDS011;34770;49.272;11.070;2023-03-01T04:47:17;17.33;;;11.87;;
16029;SDS011;34770;49.272;11.070;2023-03-01T04:49:42;18.63;;;12.37;;
16029;SDS011;34770;49.272;11.070;2023-03-01T04:52:07;21.93;;;11.17;;
16029;SDS011;34770;49.272;11.070;2023-03-01T04:54:34;18.80;;;12.33;;
16029;SDS011;34770;49.272;11.070;2023-03-01T04:57:00;22.63;;;12.97;;
16029;SDS011;34770;49.272;11.070;2023-03-01T04:59:27;19.00;;;11.90;;
16029;SDS011;34770;49.272;11.070;2023-03-01T05:01:54;19.70;;;11.87;;
16029;SDS011;34770;49.272;11.070;2023-03-01T05:04:21;23.10;;;13.07;;
16029;SDS011;34770;49.272;11.070;2023-03-01T05:06:47;23.40;;;12.73;;
16029;SDS011;34770;49.272;11.070;2023-03-01T05:09:12;21.80;;;12.47;;
16029;SDS011;34770;49.272;11.070;2023-03-01T05:11:37;22.80;;;13.43;;
16029;SDS011;34770;49.272;11.070;2023-03-01T05:14:04;19.40;;;11.63;;
16029;SDS011;34770;49.272;11.070;2023-03-01T05:16:31;20.00;;;11.80;;
16029;SDS011;34770;49.272;11.070;2023-03-01T05:18:57;19.83;;;11.83;;
16029;SDS011;34770;49.272;11.070;2023-03-01T05:21:23;18.20;;;11.50;;
16029;SDS011;34770;49.272;11.070;2023-03-01T05:23:50;19.03;;;12.17;;
16029;SDS011;34770;49.272;11.070;2023-03-01T05:26:16;18.67;;;11.70;;
16029;SDS011;34770;49.272;11.070;2023-03-01T05:28:43;15.73;;;10.87;;
16029;SDS011;34770;49.272;11.070;2023-03-01T05:31:08;16.03;;;11.33;;
16029;SDS011;34770;49.272;11.070;2023-03-01T05:33:38;22.43;;;12.37;;
16029;SDS011;34770;49.272;11.070;2023-03-01T05:36:06;14.93;;;11.90;;
16029;SDS011;34770;49.272;11.070;2023-03-01T05:38:34;19.60;;;11.80;;
16029;SDS011;34770;49.272;11.070;2023-03-01T05:41:01;17.70;;;11.47;;
16029;SDS011;34770;49.272;11.070;2023-03-01T05:43:29;18.93;;;12.37;;
16029;SDS011;34770;49.272;11.070;2023-03-01T05:45:57;20.33;;;11.90;;
16029;SDS011;34770;49.272;11.070;2023-03-01T05:48:23;21.57;;;12.23;;
16029;SDS011;34770;49.272;11.070;2023-03-01T05:50:48;27.33;;;12.73;;
16029;SDS011;34770;49.272;11.070;2023-03-01T05:53:17;25.97;;;12.60;;
16029;SDS011;34770;49.272;11.070;2023-03-01T05:55:46;21.57;;;13.27;;
16029;SDS011;34770;49.272;11.070;2023-03-01T05:58:16;21.10;;;13.83;;
16029;SDS011;34770;49.272;11.070;2023-03-01T06:00:43;22.63;;;13.37;;
16029;SDS011;34770;49.272;11.070;2023-03-01T06:03:10;19.47;;;12.30;;
16029;SDS011;34770;49.272;11.070;2023-03-01T06:05:38;20.00;;;12.63;;
16029;SDS011;34770;49.272;11.070;2023-03-01T06:08:04;20.73;;;12.90;;
16029;SDS011;34770;49.272;11.070;2023-03-01T06:10:30;22.53;;;13.77;;
16029;SDS011;34770;49.272;11.070;2023-03-01T06:12:55;20.27;;;12.77;;
16029;SDS011;34770;49.272;11.070;2023-03-01T06:15:21;19.07;;;11.67;;
16029;SDS011;34770;49.272;11.070;2023-03-01T06:17:47;20.30;;;13.63;;
16029;SDS011;34770;49.272;11.070;2023-03-01T06:20:14;23.17;;;13.17;;
16029;SDS011;34770;49.272;11.070;2023-03-01T06:22:42;18.67;;;12.07;;
16029;SDS011;34770;49.272;11.070;2023-03-01T06:25:10;19.37;;;11.53;;
16029;SDS011;34770;49.272;11.070;2023-03-01T06:27:37;17.97;;;12.43;;
16029;SDS011;34770;49.272;11.070;2023-03-01T06:30:03;16.27;;;12.10;;
16029;SDS011;34770;49.272;11.070;2023-03-01T06:32:28;19.50;;;12.47;;
16029;SDS011;34770;49.272;11.070;2023-03-01T06:34:55;17.00;;;11.53;;
16029;SDS011;34770;49.272;11.070;2023-03-01T06:37:20;25.57;;;14.37;;
16029;SDS011;34770;49.272;11.070;2023-03-01T06:39:46;18.77;;;12.63;;
16029;SDS011;34770;49.272;11.070;2023-03-01T06:42:11;21.43;;;12.97;;
16029;SDS011;34770;49.272;11.070;2023-03-01T06:44:36;24.20;;;13.33;;
16029;SDS011;34770;49.272;11.070;2023-03-01T06:47:02;19.23;;;12.00;;
16029;SDS011;34770;49.272;11.070;2023-03-01T06:49:28;22.20;;;13.80;;
16029;SDS011;34770;49.272;11.070;2023-03-01T06:51:55;22.77;;;13.53;;
16029;SDS011;34770;49.272;11.070;2023-03-01T06:54:20;19.87;;;12.43;;
16029;SDS011;34770;49.272;11.070;2023-03-01T06:56:47;25.63;;;13.20;;
16029;SDS011;34770;49.272;11.070;2023-03-01T06:59:14;23.43;;;13.40;;
16029;SDS011;34770;49.272;11.070;2023-03-01T07:01:39;20.97;;;12.60;;
16029;SDS011;34770;49.272;11.070;2023-03-01T07:04:05;23.30;;;13.47;;
16029;SDS011;34770;49.272;11.070;2023-03-01T07:06:30;20.70;;;12.93;;
16029;SDS011;34770;49.272;11.070;2023-03-01T07:08:56;27.37;;;14.83;;
16029;SDS011;34770;49.272;11.070;2023-03-01T07:11:21;22.70;;;13.50;;
16029;SDS011;34770;49.272;11.070;2023-03-01T07:13:47;21.30;;;13.00;;
16029;SDS011;34770;49.272;11.070;2023-03-01T07:16:12;21.17;;;13.50;;
16029;SDS011;34770;49.272;11.070;2023-03-01T07:18:39;20.57;;;12.67;;
16029;SDS011;34770;49.272;11.070;2023-03-01T07:21:07;28.83;;;16.40;;
16029;SDS011;34770;49.272;11.070;2023-03-01T07:23:34;22.60;;;12.60;;
16029;SDS011;34770;49.272;11.070;2023-03-01T07:25:59;21.90;;;13.47;;
16029;SDS011;34770;49.272;11.070;2023-03-01T07:28:25;25.07;;;13.87;;
16029;SDS011;34770;49.272;11.070;2023-03-01T07:30:51;21.83;;;13.27;;
16029;SDS011;34770;49.272;11.070;2023-03-01T07:33:16;25.47;;;12.23;;
16029;SDS011;34770;49.272;11.070;2023-03-01T07:35:41;20.67;;;13.53;;
16029;SDS011;34770;49.272;11.070;2023-03-01T07:38:07;22.20;;;12.60;;
16029;SDS011;34770;49.272;11.070;2023-03-01T07:40:32;22.23;;;13.83;;
16029;SDS011;34770;49.272;11.070;2023-03-01T07:42:58;22.00;;;14.17;;
16029;SDS011;34770;49.272;11.070;2023-03-01T07:45:24;25.20;;;14.43;;
16029;SDS011;34770;49.272;11.070;2023-03-01T07:47:53;21.03;;;14.20;;
16029;SDS011;34770;49.272;11.070;2023-03-01T07:50:19;25.33;;;14.37;;
16029;SDS011;34770;49.272;11.070;2023-03-01T07:52:46;24.57;;;14.70;;
16029;SDS011;34770;49.272;11.070;2023-03-01T07:55:12;22.77;;;14.63;;
16029;SDS011;34770;49.272;11.070;2023-03-01T07:57:38;26.37;;;14.03;;
16029;SDS011;34770;49.272;11.070;2023-03-01T08:00:04;24.13;;;14.87;;
16029;SDS011;34770;49.272;11.070;2023-03-01T08:02:30;23.30;;;14.80;;
16029;SDS011;34770;49.272;11.070;2023-03-01T08:04:56;21.80;;;14.47;;
16029;SDS011;34770;49.272;11.070;2023-03-01T08:07:21;21.90;;;14.20;;
16029;SDS011;34770;49.272;11.070;2023-03-01T08:09:46;20.63;;;14.53;;
16029;SDS011;34770;49.272;11.070;2023-03-01T08:12:12;24.53;;;16.47;;
16029;SDS011;34770;49.272;11.070;2023-03-01T08:14:37;25.43;;;14.73;;
16029;SDS011;34770;49.272;11.070;2023-03-01T08:17:02;27.33;;;15.73;;
16029;SDS011;34770;49.272;11.070;2023-03-01T08:19:28;21.33;;;13.97;;
16029;SDS011;34770;49.272;11.070;2023-03-01T08:21:54;25.53;;;13.47;;
16029;SDS011;34770;49.272;11.070;2023-03-01T08:24:19;22.70;;;14.57;;
16029;SDS011;34770;49.272;11.070;2023-03-01T08:26:45;23.77;;;14.23;;
16029;SDS011;34770;49.272;11.070;2023-03-01T08:29:10;27.67;;;16.27;;
16029;SDS011;34770;49.272;11.070;2023-03-01T08:31:36;23.27;;;15.63;;
16029;SDS011;34770;49.272;11.070;2023-03-01T08:34:05;22.90;;;14.73;;
16029;SDS011;34770;49.272;11.070;2023-03-01T08:36:33;24.03;;;15.17;;
16029;SDS011;34770;49.272;11.070;2023-03-01T08:39:02;25.83;;;15.07;;
16029;SDS011;34770;49.272;11.070;2023-03-01T08:41:28;24.53;;;15.50;;
16029;SDS011;34770;49.272;11.070;2023-03-01T08:43:54;24.93;;;15.50;;
16029;SDS011;34770;49.272;11.070;2023-03-01T08:46:23;26.87;;;16.23;;
16029;SDS011;34770;49.272;11.070;2023-03-01T08:49:03;22.83;;;13.67;;
16029;SDS011;34770;49.272;11.070;2023-03-01T08:51:29;22.83;;;14.10;;
16029;SDS011;34770;49.272;11.070;2023-03-01T08:53:56;23.50;;;14.57;;
16029;SDS011;34770;49.272;11.070;2023-03-01T08:56:22;21.10;;;13.50;;
16029;SDS011;34770;49.272;11.070;2023-03-01T08:58:48;25.03;;;15.27;;
16029;SDS011;34770;49.272;11.070;2023-03-01T09:01:17;22.33;;;15.03;;
16029;SDS011;34770;49.272;11.070;2023-03-01T09:03:43;20.30;;;13.90;;
16029;SDS011;34770;49.272;11.070;2023-03-01T09:06:09;23.40;;;14.70;;
16029;SDS011;34770;49.272;11.070;2023-03-01T09:08:39;20.30;;;13.33;;
16029;SDS011;34770;49.272;11.070;2023-03-01T09:11:09;22.50;;;14.17;;
16029;SDS011;34770;49.272;11.070;2023-03-01T09:13:36;21.23;;;14.27;;
16029;SDS011;34770;49.272;11.070;2023-03-01T09:16:03;21.63;;;14.37;;
16029;SDS011;34770;49.272;11.070;2023-03-01T09:18:29;20.87;;;12.67;;
16029;SDS011;34770;49.272;11.070;2023-03-01T09:21:14;23.87;;;15.00;;
16029;SDS011;34770;49.272;11.070;2023-03-01T09:23:41;20.15;;;13.38;;
16029;SDS011;34770;49.272;11.070;2023-03-01T09:26:09;21.13;;;13.95;;
16029;SDS011;34770;49.272;11.070;2023-03-01T09:28:36;20.65;;;13.63;;
16029;SDS011;34770;49.272;11.070;2023-03-01T09:31:02;21.92;;;13.45;;
16029;SDS011;34770;49.272;11.070;2023-03-01T09:33:29;20.77;;;13.27;;
16029;SDS011;34770;49.272;11.070;2023-03-01T09:35:58;21.33;;;14.63;;
16029;SDS011;34770;49.272;11.070;2023-03-01T09:38:24;21.50;;;13.77;;
16029;SDS011;34770;49.272;11.070;2023-03-01T09:40:50;20.10;;;13.80;;
16029;SDS011;34770;49.272;11.070;2023-03-01T09:43:21;24.58;;;13.65;;
16029;SDS011;34770;49.272;11.070;2023-03-01T09:45:48;17.17;;;12.38;;
16029;SDS011;34770;49.272;11.070;2023-03-01T09:48:16;18.00;;;12.98;;
16029;SDS011;34770;49.272;11.070;2023-03-01T09:50:47;22.00;;;13.32;;
16029;SDS011;34770;49.272;11.070;2023-03-01T09:53:17;18.90;;;12.68;;
16029;SDS011;34770;49.272;11.070;2023-03-01T09:58:29;20.35;;;13.90;;
16029;SDS011;34770;49.272;11.070;2023-03-01T10:04:00;17.10;;;11.98;;
16029;SDS011;34770;49.272;11.070;2023-03-01T10:06:27;20.15;;;14.32;;
16029;SDS011;34770;49.272;11.070;2023-03-01T10:08:54;18.38;;;14.07;;
16029;SDS011;34770;49.272;11.070;2023-03-01T10:11:36;20.15;;;13.57;;
16029;SDS011;34770;49.272;11.070;2023-03-01T10:16:53;20.15;;;13.27;;
16029;SDS011;34770;49.272;11.070;2023-03-01T10:22:05;15.48;;;13.43;;
16029;SDS011;34770;49.272;11.070;2023-03-01T10:24:38;18.02;;;12.10;;
16029;SDS011;34770;49.272;11.070;2023-03-01T10:27:05;18.40;;;13.07;;
16029;SDS011;34770;49.272;11.070;2023-03-01T10:32:47;14.27;;;11.18;;
16029;SDS011;34770;49.272;11.070;2023-03-01T10:35:23;21.02;;;13.15;;
16029;SDS011;34770;49.272;11.070;2023-03-01T10:38:07;20.55;;;11.88;;
16029;SDS011;34770;49.272;11.070;2023-03-01T10:40:34;17.92;;;12.77;;
16029;SDS011;34770;49.272;11.070;2023-03-01T10:43:03;18.45;;;12.07;;
16029;SDS011;34770;49.272;11.070;2023-03-01T10:45:31;20.15;;;12.77;;
16029;SDS011;34770;49.272;11.070;2023-03-01T10:48:16;17.42;;;12.65;;
16029;SDS011;34770;49.272;11.070;2023-03-01T10:50:45;20.88;;;12.85;;
16029;SDS011;34770;49.272;11.070;2023-03-01T10:53:23;21.85;;;13.07;;
16029;SDS011;34770;49.272;11.070;2023-03-01T10:56:04;19.08;;;12.15;;
16029;SDS011;34770;49.272;11.070;2023-03-01T10:58:41;20.23;;;12.75;;
16029;SDS011;34770;49.272;11.070;2023-03-01T11:01:30;18.38;;;12.52;;
16029;SDS011;34770;49.272;11.070;2023-03-01T11:06:30;20.00;;;12.75;;
16029;SDS011;34770;49.272;11.070;2023-03-01T11:08:56;20.55;;;13.48;;
16029;SDS011;34770;49.272;11.070;2023-03-01T11:11:23;20.00;;;12.45;;
16029;SDS011;34770;49.272;11.070;2023-03-01T11:14:07;16.13;;;12.43;;
16029;SDS011;34770;49.272;11.070;2023-03-01T11:16:41;16.35;;;11.63;;
16029;SDS011;34770;49.272;11.070;2023-03-01T11:21:35;17.73;;;13.48;;
16029;SDS011;34770;49.272;11.070;2023-03-01T11:24:09;20.45;;;14.70;;
16029;SDS011;34770;49.272;11.070;2023-03-01T11:26:41;19.25;;;13.55;;
16029;SDS011;34770;49.272;11.070;2023-03-01T11:29:18;18.15;;;12.13;;
16029;SDS011;34770;49.272;11.070;2023-03-01T11:32:01;20.83;;;13.13;;
16029;SDS011;34770;49.272;11.070;2023-03-01T11:34:42;19.30;;;12.38;;
16029;SDS011;34770;49.272;11.070;2023-03-01T11:37:22;16.15;;;11.45;;
16029;SDS011;34770;49.272;11.070;2023-03-01T11:50:46;17.38;;;11.95;;
16029;SDS011;34770;49.272;11.070;2023-03-01T11:53:26;19.45;;;12.63;;
16029;SDS011;34770;49.272;11.070;2023-03-01T11:59:12;16.00;;;11.75;;
16029;SDS011;34770;49.272;11.070;2023-03-01T12:02:00;15.88;;;11.65;;
16029;SDS011;34770;49.272;11.070;2023-03-01T12:07:52;17.90;;;11.75;;
16029;SDS011;34770;49.272;11.070;2023-03-01T12:16:09;16.83;;;11.50;;
16029;SDS011;34770;49.272;11.070;2023-03-01T12:18:40;15.80;;;9.98;;
16029;SDS011;34770;49.272;11.070;2023-03-01T12:21:28;14.07;;;10.48;;
16029;SDS011;34770;49.272;11.070;2023-03-01T12:24:02;15.95;;;11.10;;
16029;SDS011;34770;49.272;11.070;2023-03-01T12:26:47;15.10;;;11.23;;
16029;SDS011;34770;49.272;11.070;2023-03-01T12:29:18;16.17;;;12.18;;
16029;SDS011;34770;49.272;11.070;2023-03-01T12:36:58;14.75;;;10.90;;
16029;SDS011;34770;49.272;11.070;2023-03-01T12:42:27;16.80;;;11.25;;
16029;SDS011;34770;49.272;11.070;2023-03-01T12:50:47;16.20;;;11.93;;
16029;SDS011;34770;49.272;11.070;2023-03-01T12:53:26;16.63;;;11.68;;
16029;SDS011;34770;49.272;11.070;2023-03-01T12:55:56;15.30;;;11.00;;
16029;SDS011;34770;49.272;11.070;2023-03-01T12:58:35;17.70;;;12.43;;
16029;SDS011;34770;49.272;11.070;2023-03-01T13:06:50;16.75;;;10.68;;
16029;SDS011;34770;49.272;11.070;2023-03-01T13:09:41;14.85;;;10.95;;
16029;SDS011;34770;49.272;11.070;2023-03-01T13:12:52;13.95;;;10.30;;
16029;SDS011;34770;49.272;11.070;2023-03-01T13:15:25;14.07;;;11.02;;
16029;SDS011;34770;49.272;11.070;2023-03-01T13:20:27;15.93;;;11.77;;
16029;SDS011;34770;49.272;11.070;2023-03-01T13:31:00;12.80;;;9.75;;
16029;SDS011;34770;49.272;11.070;2023-03-01T13:35:56;12.45;;;9.93;;
16029;SDS011;34770;49.272;11.070;2023-03-01T13:41:03;13.43;;;10.13;;
16029;SDS011;34770;49.272;11.070;2023-03-01T13:43:36;14.52;;;10.93;;
16029;SDS011;34770;49.272;11.070;2023-03-01T13:48:41;12.45;;;9.70;;
16029;SDS011;34770;49.272;11.070;2023-03-01T13:51:10;11.30;;;9.02;;
16029;SDS011;34770;49.272;11.070;2023-03-01T13:53:39;13.05;;;9.23;;
16029;SDS011;34770;49.272;11.070;2023-03-01T13:56:28;14.95;;;11.98;;
16029;SDS011;34770;49.272;11.070;2023-03-01T13:59:20;14.50;;;10.10;;
16029;SDS011;34770;49.272;11.070;2023-03-01T14:01:54;13.68;;;9.63;;
16029;SDS011;34770;49.272;11.070;2023-03-01T14:04:29;15.23;;;9.43;;
16029;SDS011;34770;49.272;11.070;2023-03-01T14:09:49;16.13;;;12.45;;
16029;SDS011;34770;49.272;11.070;2023-03-01T14:17:44;14.77;;;11.30;;
16029;SDS011;34770;49.272;11.070;2023-03-01T14:20:18;17.85;;;11.77;;
16029;SDS011;34770;49.272;11.070;2023-03-01T14:22:46;24.08;;;14.68;;
16029;SDS011;34770;49.272;11.070;2023-03-01T14:28:02;17.90;;;11.98;;
16029;SDS011;34770;49.272;11.070;2023-03-01T14:30:38;16.17;;;12.07;;
16029;SDS011;34770;49.272;11.070;2023-03-01T14:33:21;16.83;;;11.65;;
16029;SDS011;34770;49.272;11.070;2023-03-01T14:35:54;15.70;;;10.20;;
16029;SDS011;34770;49.272;11.070;2023-03-01T14:38:23;14.38;;;10.93;;
16029;SDS011;34770;49.272;11.070;2023-03-01T14:40:59;16.00;;;10.93;;
16029;SDS011;34770;49.272;11.070;2023-03-01T14:43:28;14.35;;;10.52;;
16029;SDS011;34770;49.272;11.070;2023-03-01T14:45:55;14.85;;;10.40;;
16029;SDS011;34770;49.272;11.070;2023-03-01T14:48:21;13.88;;;9.65;;
16029;SDS011;34770;49.272;11.070;2023-03-01T14:50:48;15.98;;;10.05;;
16029;SDS011;34770;49.272;11.070;2023-03-01T14:53:35;17.38;;;11.65;;
16029;SDS011;34770;49.272;11.070;2023-03-01T14:56:01;18.63;;;11.73;;
16029;SDS011;34770;49.272;11.070;2023-03-01T14:58:27;17.83;;;13.30;;
16029;SDS011;34770;49.272;11.070;2023-03-01T15:01:00;14.82;;;12.50;;
16029;SDS011;34770;49.272;11.070;2023-03-01T15:03:34;13.38;;;10.65;;
16029;SDS011;34770;49.272;11.070;2023-03-01T15:06:05;15.27;;;11.32;;
16029;SDS011;34770;49.272;11.070;2023-03-01T15:08:32;15.63;;;10.25;;
16029;SDS011;34770;49.272;11.070;2023-03-01T15:11:15;15.23;;;10.73;;
16029;SDS011;34770;49.272;11.070;2023-03-01T15:13:49;17.83;;;13.88;;
16029;SDS011;34770;49.272;11.070;2023-03-01T15:16:17;14.15;;;11.52;;
16029;SDS011;34770;49.272;11.070;2023-03-01T15:18:46;14.30;;;12.13;;
16029;SDS011;34770;49.272;11.070;2023-03-01T15:21:48;17.52;;;12.48;;
16029;SDS011;34770;49.272;11.070;2023-03-01T15:26:44;15.45;;;10.50;;
16029;SDS011;34770;49.272;11.070;2023-03-01T15:29:33;13.02;;;10.43;;
16029;SDS011;34770;49.272;11.070;2023-03-01T15:32:27;15.15;;;10.48;;
16029;SDS011;34770;49.272;11.070;2023-03-01T15:34:56;14.93;;;11.65;;
16029;SDS011;34770;49.272;11.070;2023-03-01T15:37:37;15.80;;;13.20;;
16029;SDS011;34770;49.272;11.070;2023-03-01T15:40:17;16.58;;;11.52;;
16029;SDS011;34770;49.272;11.070;2023-03-01T15:42:50;14.43;;;11.25;;
16029;SDS011;34770;49.272;11.070;2023-03-01T15:47:55;17.75;;;11.90;;
16029;SDS011;34770;49.272;11.070;2023-03-01T15:52:53;15.80;;;10.68;;
16029;SDS011;34770;49.272;11.070;2023-03-01T16:00:15;16.67;;;12.07;;
16029;SDS011;34770;49.272;11.070;2023-03-01T16:02:42;17.55;;;11.98;;
16029;SDS011;34770;49.272;11.070;2023-03-01T16:05:22;15.43;;;10.80;;
16029;SDS011;34770;49.272;11.070;2023-03-01T16:07:52;18.08;;;11.63;;
16029;SDS011;34770;49.272;11.070;2023-03-01T16:10:17;16.25;;;12.40;;
16029;SDS011;34770;49.272;11.070;2023-03-01T16:12:44;17.27;;;12.50;;
16029;SDS011;34770;49.272;11.070;2023-03-01T16:15:17;17.13;;;12.02;;
16029;SDS011;34770;49.272;11.070;2023-03-01T16:17:45;18.73;;;12.50;;
16029;SDS011;34770;49.272;11.070;2023-03-01T16:20:12;15.30;;;11.00;;
16029;SDS011;34770;49.272;11.070;2023-03-01T16:22:40;18.17;;;11.95;;
16029;SDS011;34770;49.272;11.070;2023-03-01T16:25:10;16.95;;;10.95;;